Miromar Lakes, Florida
Current Conditions -  °F | °C
As of 2:53 AM on Monday 22 Dec 2014 (Local Time) from KRSW Reporting Station
Broken Clouds Broken Clouds  
Wind Chill: 68°   Ceiling: 7000
Heat Index: 68°   Visibility: 10mi
Dew Point: 65°   Wind: 3mph
Humidity: 90%   Direction: 130°SE
Pressure: 30.01"   Gusts: NA
Location:  26.4783°N, 81.7306°W
Report Text: KRSW 220753Z AUTO 13003KT 10SM BKN070 BKN090 20/18 A3001 RMK AO2 SLP161 T02000183 TSNO
Loading
Personal Weather Stations






























Interactive Weather Map New forecast layout! Learn more

10-Day Weather Forecast

Advertisements
Track Severe Weather on mobile